Terminal Aerodrome Forecast
Issued by NWS North Platte, NE

Home | Current Version | Previous Version | Graphics & Text | Print | Product List | Glossary On
Versions: 1 2 3 4 5 6 7 8 9 10 11 12 13
393
FTUS43 KLBF 211738
TAFVTN
TAF
KVTN 211738Z 2118/2218 34015G21KT P6SM SKC
     FM212200 34010KT P6SM FEW250
     FM220100 VRB03KT P6SM FEW250
     FM220900 18007KT P6SM SCT250
     FM221700 25009KT P6SM BKN200=

USA.gov is the U.S. government's official web portal to all federal, state and local government web resources and services.